Blue Canyon, California
Current Conditions -  °F | °C
As of 4:52 PM on Tuesday 21 Oct 2014 (Local Time) from KBLU Reporting Station
Clear Clear  
Wind Chill: 52°   Ceiling: Unl
Heat Index: 52°   Visibility: 10mi
Dew Point: 27°   Wind: 0mph
Humidity: 38%   Direction: NA
Pressure: 30.1"   Gusts: NA
Location:  39.28°N, 120.7°W
Report Text: KBLU 212352Z AUTO 00000KT 10SM CLR 11/M03 A3010 RMK AO2 SLP167 T01111028 10122 20100 58004
Loading
Personal Weather Stations






























Interactive Weather Map
Tropical Storm Tracking
New forecast layout! Learn more

10-Day Weather Forecast

Advertisements
Track Severe Weather on mobile